createdAt,value
2022-12-03T00:01:47.741Z,15.27
2022-12-03T00:04:14.085Z,14.93
2022-12-03T00:06:40.531Z,13.30
2022-12-03T00:09:06.978Z,14.80
2022-12-03T00:11:33.650Z,17.30
2022-12-03T00:14:00.127Z,15.65
2022-12-03T00:16:26.641Z,19.67
2022-12-03T00:18:53.035Z,14.98
2022-12-03T00:21:19.448Z,16.02
2022-12-03T00:23:45.791Z,17.90
2022-12-03T00:26:12.126Z,16.00
2022-12-03T00:28:38.495Z,15.15
2022-12-03T00:31:05.130Z,17.20
2022-12-03T00:33:31.554Z,15.07
2022-12-03T00:35:57.982Z,17.65
2022-12-03T00:38:24.455Z,16.80
2022-12-03T00:40:50.816Z,17.80
2022-12-03T00:43:17.189Z,19.10
2022-12-03T00:45:43.827Z,19.95
2022-12-03T00:48:10.178Z,22.73
2022-12-03T00:50:36.720Z,20.52
2022-12-03T00:53:03.326Z,21.30
2022-12-03T00:55:29.668Z,18.58
2022-12-03T00:57:56.045Z,20.98
2022-12-03T01:00:24.600Z,25.52
2022-12-03T01:02:52.147Z,23.92
2022-12-03T01:05:19.587Z,25.30
2022-12-03T01:07:47.169Z,19.58
2022-12-03T01:10:14.118Z,24.17
2022-12-03T01:12:40.500Z,22.63
2022-12-03T01:15:09.254Z,26.27
2022-12-03T01:17:36.355Z,23.45
2022-12-03T01:20:05.132Z,25.77
2022-12-03T01:22:31.612Z,22.20
2022-12-03T01:24:58.082Z,25.45
2022-12-03T01:27:24.445Z,23.42
2022-12-03T01:29:50.808Z,21.75
2022-12-03T01:32:17.188Z,21.90
2022-12-03T01:34:47.715Z,26.67
2022-12-03T01:37:14.623Z,25.75
2022-12-03T01:39:41.096Z,25.55
2022-12-03T01:42:11.872Z,22.88
2022-12-03T01:44:40.808Z,25.98
2022-12-03T01:47:12.962Z,22.77
2022-12-03T01:49:45.864Z,20.77
2022-12-03T01:54:47.552Z,25.27
2022-12-03T01:57:24.510Z,21.27
2022-12-03T01:59:52.629Z,20.13
2022-12-03T02:02:25.881Z,23.75
2022-12-03T02:04:56.081Z,19.88
2022-12-03T02:07:27.231Z,21.50
2022-12-03T02:09:56.458Z,22.15
2022-12-03T02:12:38.227Z,23.35
2022-12-03T02:15:06.943Z,24.23
2022-12-03T02:17:33.716Z,20.80
2022-12-03T02:20:01.634Z,22.75
2022-12-03T02:22:51.158Z,24.10
2022-12-03T02:25:20.024Z,20.83
2022-12-03T02:27:47.104Z,17.55
2022-12-03T02:30:16.410Z,21.17
2022-12-03T02:32:43.058Z,22.90
2022-12-03T02:35:18.701Z,18.48
2022-12-03T02:37:46.582Z,20.25
2022-12-03T02:40:19.608Z,17.02
2022-12-03T02:42:46.558Z,17.23
2022-12-03T02:45:26.901Z,19.50
2022-12-03T02:48:02.409Z,17.95
2022-12-03T02:50:35.431Z,17.48
2022-12-03T02:53:05.484Z,18.83
2022-12-03T02:55:37.014Z,18.77
2022-12-03T02:58:04.748Z,18.65
2022-12-03T03:00:32.169Z,18.48
2022-12-03T03:02:59.269Z,19.02
2022-12-03T03:05:25.736Z,16.08
2022-12-03T03:07:52.314Z,17.85
2022-12-03T03:10:22.841Z,18.70
2022-12-03T03:12:50.899Z,18.00
2022-12-03T03:15:17.314Z,16.40
2022-12-03T03:17:43.724Z,18.48
2022-12-03T03:20:11.284Z,15.60
2022-12-03T03:22:40.427Z,19.35
2022-12-03T03:25:10.726Z,17.15
2022-12-03T03:27:38.674Z,13.98
2022-12-03T03:30:06.252Z,15.57
2022-12-03T03:32:33.268Z,15.57
2022-12-03T03:35:00.703Z,18.83
2022-12-03T03:37:28.323Z,15.43
2022-12-03T03:39:55.473Z,15.48
2022-12-03T03:42:23.097Z,14.43
2022-12-03T03:44:49.772Z,17.45
2022-12-03T03:47:17.275Z,15.95
2022-12-03T03:49:44.143Z,16.20
2022-12-03T03:52:11.615Z,13.68
2022-12-03T03:54:39.317Z,16.60
2022-12-03T03:57:06.257Z,15.35
2022-12-03T03:59:32.673Z,13.82
2022-12-03T04:01:59.055Z,14.95
2022-12-03T04:04:27.202Z,15.23
2022-12-03T04:06:53.646Z,16.10
2022-12-03T04:09:20.122Z,14.02
2022-12-03T04:12:04.930Z,15.65
2022-12-03T04:14:31.355Z,15.25
2022-12-03T04:16:58.851Z,13.55
2022-12-03T04:19:25.491Z,13.98
2022-12-03T04:22:11.207Z,13.38
2022-12-03T04:24:37.548Z,15.40
2022-12-03T04:27:22.340Z,12.88
2022-12-03T04:29:48.723Z,15.77
2022-12-03T04:32:33.498Z,13.82
2022-12-03T04:35:18.555Z,13.00
2022-12-03T04:37:44.997Z,13.02
2022-12-03T04:40:30.075Z,12.02
2022-12-03T04:42:56.483Z,14.88
2022-12-03T04:45:22.820Z,13.60
2022-12-03T04:47:49.220Z,13.57
2022-12-03T04:50:15.613Z,12.82
2022-12-03T04:52:42.107Z,12.00
2022-12-03T04:55:08.715Z,12.90
2022-12-03T04:57:35.102Z,12.35
2022-12-03T05:00:01.707Z,14.35
2022-12-03T05:02:28.115Z,14.70
2022-12-03T05:04:54.833Z,13.32
2022-12-03T05:07:21.495Z,11.52
2022-12-03T05:09:48.068Z,17.25
2022-12-03T05:12:14.418Z,15.80
2022-12-03T05:14:40.803Z,10.95
2022-12-03T05:17:07.309Z,12.02
2022-12-03T05:19:52.065Z,11.98
2022-12-03T05:22:18.451Z,14.10
2022-12-03T05:24:44.764Z,14.48
2022-12-03T05:27:11.200Z,13.57
2022-12-03T05:29:37.750Z,10.98
2022-12-03T05:32:04.305Z,16.02
2022-12-03T05:34:30.670Z,11.68
2022-12-03T05:36:57.114Z,14.80
2022-12-03T05:39:25.493Z,15.82
2022-12-03T05:42:10.654Z,17.10
2022-12-03T05:44:37.018Z,12.43
2022-12-03T05:47:03.430Z,13.32
2022-12-03T05:49:29.833Z,14.98
2022-12-03T05:51:58.584Z,15.40
2022-12-03T05:54:25.409Z,15.05
2022-12-03T05:56:51.974Z,15.57
2022-12-03T05:59:18.376Z,14.00
2022-12-03T06:01:44.752Z,13.82
2022-12-03T06:04:11.277Z,15.25
2022-12-03T06:06:37.622Z,13.80
2022-12-03T06:09:04.627Z,15.10
2022-12-03T06:11:33.965Z,13.30
2022-12-03T06:14:00.812Z,12.98
2022-12-03T06:16:27.217Z,16.85
2022-12-03T06:18:53.905Z,16.52
2022-12-03T06:21:20.293Z,14.02
2022-12-03T06:23:46.654Z,16.13
2022-12-03T06:26:14.628Z,12.93
2022-12-03T06:28:46.122Z,13.65
2022-12-03T06:31:13.678Z,15.85
2022-12-03T06:33:40.264Z,16.08
2022-12-03T06:36:06.990Z,18.05
2022-12-03T06:38:33.338Z,14.00
2022-12-03T06:40:59.951Z,15.15
2022-12-03T06:43:26.312Z,15.02
2022-12-03T06:45:52.895Z,12.80
2022-12-03T06:48:19.345Z,15.55
2022-12-03T06:50:45.699Z,15.05
2022-12-03T06:53:12.125Z,14.40
2022-12-03T06:55:38.622Z,13.77
2022-12-03T06:58:04.999Z,14.23
2022-12-03T07:00:31.395Z,16.73
2022-12-03T07:02:57.803Z,14.68
2022-12-03T07:05:24.247Z,13.35
2022-12-03T07:07:52.180Z,13.30
2022-12-03T07:10:19.624Z,14.00
2022-12-03T07:12:45.979Z,15.43
2022-12-03T07:15:12.444Z,14.63
2022-12-03T07:17:38.871Z,11.88
2022-12-03T07:20:06.085Z,14.27
2022-12-03T07:22:32.540Z,13.27
2022-12-03T07:24:59.180Z,13.68
2022-12-03T07:27:25.600Z,13.75
2022-12-03T07:29:52.060Z,12.55
2022-12-03T07:32:18.636Z,14.77
2022-12-03T07:34:45.016Z,14.57
2022-12-03T07:37:11.357Z,15.45
2022-12-03T07:39:40.347Z,14.25
2022-12-03T07:42:09.095Z,17.63
2022-12-03T07:44:37.536Z,15.93
2022-12-03T07:47:04.141Z,13.57
2022-12-03T07:49:30.635Z,14.55
2022-12-03T07:51:57.095Z,14.52
2022-12-03T07:54:24.350Z,17.80
2022-12-03T07:56:50.693Z,16.92
2022-12-03T07:59:17.920Z,14.85
2022-12-03T08:01:45.205Z,16.30
2022-12-03T08:04:14.562Z,16.70
2022-12-03T08:06:41.271Z,14.70
2022-12-03T08:09:09.986Z,16.08
2022-12-03T08:11:40.013Z,18.33
2022-12-03T08:14:18.127Z,17.15
2022-12-03T08:16:46.112Z,15.48
2022-12-03T08:19:14.536Z,15.60
2022-12-03T08:21:43.055Z,16.48
2022-12-03T08:24:14.544Z,19.38
2022-12-03T08:26:41.464Z,15.80
2022-12-03T08:29:13.807Z,21.05
2022-12-03T08:31:40.802Z,11.75
2022-12-03T08:34:20.115Z,18.15
2022-12-03T08:36:48.119Z,18.83
2022-12-03T08:39:29.493Z,20.63
2022-12-03T08:42:41.651Z,19.02
2022-12-03T08:45:40.340Z,18.30
2022-12-03T08:48:25.694Z,18.52
2022-12-03T08:50:55.515Z,20.40
2022-12-03T08:53:37.018Z,19.60
2022-12-03T08:56:16.245Z,19.85
2022-12-03T08:58:48.033Z,18.10
2022-12-03T09:01:39.138Z,19.15
2022-12-03T09:04:23.110Z,19.75
2022-12-03T09:06:50.862Z,20.92
2022-12-03T09:09:17.357Z,20.08
2022-12-03T09:11:44.220Z,22.52
2022-12-03T09:14:18.079Z,22.27
2022-12-03T09:16:45.070Z,22.48
2022-12-03T09:19:11.626Z,18.42
2022-12-03T09:21:38.103Z,19.83
2022-12-03T09:24:04.824Z,22.13
2022-12-03T09:26:31.209Z,19.13
2022-12-03T09:28:57.750Z,22.08
2022-12-03T09:31:24.383Z,22.95
2022-12-03T09:33:50.899Z,21.60
2022-12-03T09:36:17.700Z,23.63
2022-12-03T09:38:47.832Z,21.75
2022-12-03T09:41:14.756Z,27.45
2022-12-03T09:44:03.201Z,20.92
2022-12-03T09:46:29.959Z,19.95
2022-12-03T09:48:57.034Z,22.05
2022-12-03T09:51:30.009Z,22.73
2022-12-03T09:56:24.453Z,23.08
2022-12-03T09:58:50.883Z,23.45
2022-12-03T10:01:17.863Z,22.63
2022-12-03T10:03:48.154Z,21.52
2022-12-03T10:06:18.544Z,22.90
2022-12-03T10:08:48.547Z,24.27
2022-12-03T10:11:17.107Z,22.70
2022-12-03T10:13:44.547Z,22.95
2022-12-03T10:16:15.149Z,23.15
2022-12-03T10:18:46.199Z,23.17
2022-12-03T10:21:23.711Z,27.33
2022-12-03T10:24:26.713Z,24.75
2022-12-03T10:26:55.912Z,27.35
2022-12-03T10:29:34.246Z,22.52
2022-12-03T10:32:06.293Z,23.92
2022-12-03T10:34:38.469Z,24.92
2022-12-03T10:37:14.026Z,26.42
2022-12-03T10:40:00.412Z,29.85
2022-12-03T10:42:32.339Z,28.13
2022-12-03T10:45:17.795Z,23.00
2022-12-03T10:48:01.819Z,26.05
2022-12-03T10:50:29.231Z,26.70
2022-12-03T10:52:55.851Z,28.08
2022-12-03T10:55:22.399Z,26.13
2022-12-03T10:57:48.793Z,27.45
2022-12-03T11:00:17.668Z,24.45
2022-12-03T11:02:44.355Z,26.20
2022-12-03T11:05:29.460Z,27.52
2022-12-03T11:07:56.693Z,28.55
2022-12-03T11:10:23.529Z,29.70
2022-12-03T11:13:27.678Z,34.28
2022-12-03T11:15:54.566Z,32.80
2022-12-03T11:18:49.782Z,30.42
2022-12-03T11:21:17.359Z,28.05
2022-12-03T11:23:46.769Z,26.20
2022-12-03T11:26:18.649Z,27.75
2022-12-03T11:28:45.717Z,29.08
2022-12-03T11:31:38.827Z,32.97
2022-12-03T11:34:20.684Z,32.65
2022-12-03T11:37:12.042Z,26.35
2022-12-03T11:39:44.493Z,27.98
2022-12-03T11:42:39.127Z,29.52
2022-12-03T11:45:05.459Z,28.67
2022-12-03T11:47:36.805Z,29.88
2022-12-03T11:50:23.779Z,32.75
2022-12-03T11:52:59.071Z,29.00
2022-12-03T11:55:30.338Z,29.35
2022-12-03T11:58:02.843Z,34.47
2022-12-03T12:00:30.232Z,30.27
2022-12-03T12:02:58.340Z,30.98
2022-12-03T12:05:32.404Z,28.52
2022-12-03T12:08:00.764Z,28.27
2022-12-03T12:10:47.619Z,33.83
2022-12-03T12:13:32.285Z,30.02
2022-12-03T12:16:00.847Z,30.48
2022-12-03T12:18:40.868Z,32.22
2022-12-03T12:21:38.671Z,29.77
2022-12-03T12:24:33.063Z,30.77
2022-12-03T12:27:11.336Z,27.27
2022-12-03T12:29:39.491Z,32.10
2022-12-03T12:32:08.865Z,30.65
2022-12-03T12:34:53.878Z,29.40
2022-12-03T12:37:30.711Z,29.48
2022-12-03T12:39:57.692Z,29.45
2022-12-03T12:42:29.886Z,34.78
2022-12-03T12:45:24.139Z,33.90
2022-12-03T12:48:09.486Z,28.50
2022-12-03T12:50:44.178Z,26.80
2022-12-03T12:53:12.233Z,30.42
2022-12-03T12:55:39.773Z,30.10
2022-12-03T12:58:14.925Z,32.20
2022-12-03T13:00:41.871Z,31.33
2022-12-03T13:03:11.748Z,31.42
2022-12-03T13:05:41.136Z,33.47
2022-12-03T13:08:22.678Z,28.75
2022-12-03T13:10:51.088Z,30.67
2022-12-03T13:13:23.308Z,31.23
2022-12-03T13:15:57.256Z,29.45
2022-12-03T13:18:41.021Z,30.23
2022-12-03T13:21:22.058Z,34.97
2022-12-03T13:23:51.488Z,30.70
2022-12-03T13:26:36.086Z,26.90
2022-12-03T13:29:15.833Z,30.90
2022-12-03T13:31:52.054Z,31.58
2022-12-03T13:34:28.159Z,30.58
2022-12-03T13:36:58.422Z,28.27
2022-12-03T13:39:34.979Z,32.83
2022-12-03T13:42:37.934Z,29.95
2022-12-03T13:45:13.279Z,32.00
2022-12-03T13:48:01.180Z,32.80
2022-12-03T13:50:34.166Z,32.10
2022-12-03T13:55:45.360Z,29.98
2022-12-03T13:58:11.806Z,33.05
2022-12-03T14:00:38.247Z,30.70
2022-12-03T14:03:04.982Z,28.58
2022-12-03T14:05:31.604Z,33.55
2022-12-03T14:08:01.776Z,33.10
2022-12-03T14:10:29.240Z,33.45
2022-12-03T14:12:56.584Z,28.20
2022-12-03T14:15:23.185Z,37.97
2022-12-03T14:17:49.618Z,32.95
2022-12-03T14:20:16.044Z,31.65
2022-12-03T14:22:42.434Z,32.65
2022-12-03T14:25:09.147Z,31.85
2022-12-03T14:27:35.512Z,26.00
2022-12-03T14:30:01.970Z,27.33
2022-12-03T14:32:28.359Z,30.88
2022-12-03T14:34:54.775Z,29.52
2022-12-03T14:37:21.303Z,33.67
2022-12-03T14:39:47.714Z,33.03
2022-12-03T14:42:14.228Z,35.00
2022-12-03T14:44:42.314Z,34.53
2022-12-03T14:47:08.992Z,30.42
2022-12-03T14:49:35.550Z,29.85
2022-12-03T14:52:02.356Z,29.50
2022-12-03T14:54:28.833Z,28.70
2022-12-03T14:56:55.347Z,29.73
2022-12-03T14:59:27.433Z,33.55
2022-12-03T15:04:21.606Z,31.30
2022-12-03T15:06:48.121Z,31.10
2022-12-03T15:09:14.665Z,37.67
2022-12-03T15:11:45.940Z,32.45
2022-12-03T15:14:13.099Z,30.85
2022-12-03T15:16:39.727Z,32.70
2022-12-03T15:19:06.135Z,29.00
2022-12-03T15:21:34.723Z,30.08
2022-12-03T15:24:02.211Z,31.70
2022-12-03T15:26:29.055Z,30.67
2022-12-03T15:28:55.541Z,27.60
2022-12-03T15:31:21.991Z,28.88
2022-12-03T15:33:48.681Z,30.17
2022-12-03T15:36:15.171Z,29.70
2022-12-03T15:38:41.651Z,28.08
2022-12-03T15:41:28.747Z,32.35
2022-12-03T15:43:57.431Z,35.22
2022-12-03T15:46:25.966Z,30.10
2022-12-03T15:48:52.476Z,31.55
2022-12-03T15:51:18.899Z,30.48
2022-12-03T15:53:45.342Z,33.78
2022-12-03T15:56:13.030Z,29.58
2022-12-03T15:58:40.573Z,32.00
2022-12-03T16:01:08.499Z,35.30
2022-12-03T16:03:35.627Z,30.77
2022-12-03T16:06:02.079Z,30.27
2022-12-03T16:08:28.517Z,27.20
2022-12-03T16:10:55.064Z,31.67
2022-12-03T16:13:21.502Z,27.33
2022-12-03T16:15:48.183Z,35.70
2022-12-03T16:18:14.842Z,36.13
2022-12-03T16:20:41.200Z,31.63
2022-12-03T16:23:08.113Z,30.88
2022-12-03T16:25:34.499Z,30.67
2022-12-03T16:28:00.958Z,29.75
2022-12-03T16:30:27.440Z,33.25
2022-12-03T16:32:55.092Z,29.48
2022-12-03T16:35:21.417Z,26.00
2022-12-03T16:37:48.432Z,32.10
2022-12-03T16:40:15.411Z,30.05
2022-12-03T16:42:42.218Z,27.80
2022-12-03T16:45:09.101Z,34.20
2022-12-03T16:47:37.813Z,30.40
2022-12-03T16:50:10.671Z,31.63
2022-12-03T16:52:41.026Z,31.13
2022-12-03T16:55:07.913Z,27.58
2022-12-03T16:57:34.350Z,31.75
2022-12-03T17:00:03.982Z,31.27
2022-12-03T17:02:30.427Z,31.55
2022-12-03T17:04:56.828Z,34.67
2022-12-03T17:07:23.604Z,30.73
2022-12-03T17:09:50.037Z,30.20
2022-12-03T17:12:17.496Z,35.65
2022-12-03T17:14:44.103Z,32.30
2022-12-03T17:17:10.513Z,39.08
2022-12-03T17:19:36.900Z,34.83
2022-12-03T17:22:03.476Z,31.00
2022-12-03T17:24:29.890Z,31.10
2022-12-03T17:26:57.478Z,31.48
2022-12-03T17:29:23.914Z,28.40
2022-12-03T17:31:50.399Z,32.65
2022-12-03T17:34:16.781Z,30.48
2022-12-03T17:36:43.328Z,30.75
2022-12-03T17:39:09.803Z,32.50
2022-12-03T17:41:36.143Z,31.73
2022-12-03T17:44:09.678Z,33.83
2022-12-03T17:46:37.215Z,35.33
2022-12-03T17:49:03.674Z,29.45
2022-12-03T17:51:30.660Z,31.15
2022-12-03T17:53:56.981Z,31.60
2022-12-03T17:56:23.525Z,28.75
2022-12-03T17:58:49.931Z,33.90
2022-12-03T18:01:16.553Z,32.97
2022-12-03T18:03:44.560Z,33.30
2022-12-03T18:06:11.030Z,33.83
2022-12-03T18:08:37.347Z,31.55
2022-12-03T18:11:03.904Z,27.60
2022-12-03T18:13:30.284Z,32.38
2022-12-03T18:15:56.811Z,28.63
2022-12-03T18:18:23.314Z,31.38
2022-12-03T18:20:49.819Z,30.17
2022-12-03T18:23:16.194Z,31.92
2022-12-03T18:25:42.753Z,30.95
2022-12-03T18:28:09.243Z,32.05
2022-12-03T18:30:36.284Z,28.17
2022-12-03T18:33:02.652Z,25.73
2022-12-03T18:35:29.832Z,28.85
2022-12-03T18:37:56.257Z,29.48
2022-12-03T18:40:24.211Z,34.53
2022-12-03T18:42:50.844Z,30.38
2022-12-03T18:45:17.408Z,38.08
2022-12-03T18:47:43.909Z,29.52
2022-12-03T18:50:11.603Z,30.20
2022-12-03T18:52:38.921Z,33.95
2022-12-03T18:55:06.599Z,33.35
2022-12-03T18:57:32.943Z,30.13
2022-12-03T18:59:59.539Z,35.63
2022-12-03T19:02:54.333Z,31.10
2022-12-03T19:05:12.375Z,36.90
2022-12-03T19:07:39.050Z,31.27
2022-12-03T19:10:06.721Z,30.60
2022-12-03T19:12:33.517Z,37.95
2022-12-03T19:15:00.953Z,34.53
2022-12-03T19:17:28.059Z,30.05
2022-12-03T19:19:55.121Z,37.15
2022-12-03T19:22:21.810Z,31.15
2022-12-03T19:24:48.371Z,27.45
2022-12-03T19:27:15.292Z,31.05
2022-12-03T19:29:41.761Z,34.92
2022-12-03T19:32:08.809Z,30.90
2022-12-03T19:34:35.390Z,28.35
2022-12-03T19:37:01.731Z,30.13
2022-12-03T19:39:28.256Z,33.47
2022-12-03T19:41:54.685Z,30.80
2022-12-03T19:44:21.135Z,31.08
2022-12-03T19:46:49.750Z,29.65
2022-12-03T19:49:18.360Z,34.95
2022-12-03T19:51:44.706Z,35.08
2022-12-03T19:54:14.188Z,30.58
2022-12-03T19:56:40.714Z,27.02
2022-12-03T19:59:07.708Z,30.92
2022-12-03T20:01:36.449Z,38.15
2022-12-03T20:04:05.722Z,31.92
2022-12-03T20:06:34.930Z,29.38
2022-12-03T20:09:13.564Z,31.55
2022-12-03T20:11:41.416Z,30.35
2022-12-03T20:14:11.773Z,30.10
2022-12-03T20:16:38.239Z,30.92
2022-12-03T20:19:08.097Z,29.75
2022-12-03T20:21:37.221Z,33.78
2022-12-03T20:24:05.548Z,31.23
2022-12-03T20:26:33.024Z,29.15
2022-12-03T20:29:00.002Z,35.33
2022-12-03T20:31:29.370Z,26.52
2022-12-03T20:33:59.175Z,27.55
2022-12-03T20:36:27.194Z,27.25
2022-12-03T20:38:55.440Z,32.25
2022-12-03T20:41:23.164Z,31.55
2022-12-03T20:43:50.419Z,28.65
2022-12-03T20:46:23.399Z,29.63
2022-12-03T20:48:50.040Z,29.92
2022-12-03T20:51:19.409Z,30.17
2022-12-03T20:53:46.574Z,28.80
2022-12-03T20:56:25.852Z,30.88
2022-12-03T20:58:53.803Z,31.10
2022-12-03T21:01:24.370Z,29.17
2022-12-03T21:03:52.300Z,31.85
2022-12-03T21:06:19.503Z,31.77
2022-12-03T21:08:46.438Z,30.13
2022-12-03T21:11:25.216Z,29.45
2022-12-03T21:13:53.281Z,27.75
2022-12-03T21:16:39.485Z,32.40
2022-12-03T21:19:09.772Z,28.27
2022-12-03T21:21:36.570Z,29.35
2022-12-03T21:24:03.126Z,30.90
2022-12-03T21:26:29.838Z,28.75
2022-12-03T21:28:56.295Z,28.52
2022-12-03T21:31:25.627Z,29.48
2022-12-03T21:33:56.557Z,30.83
2022-12-03T21:36:25.553Z,32.70
2022-12-03T21:38:52.456Z,29.08
2022-12-03T21:41:19.257Z,30.63
2022-12-03T21:43:45.763Z,27.35
2022-12-03T21:47:09.671Z,27.15
2022-12-03T21:49:03.791Z,29.17
2022-12-03T21:51:33.193Z,25.95
2022-12-03T21:53:59.790Z,29.13
2022-12-03T21:56:26.220Z,29.77
2022-12-03T21:58:52.636Z,26.48
2022-12-03T22:01:22.517Z,26.58
2022-12-03T22:03:49.509Z,29.33
2022-12-03T22:06:16.630Z,31.60
2022-12-03T22:08:43.145Z,25.60
2022-12-03T22:11:13.447Z,26.00
2022-12-03T22:13:40.922Z,28.52
2022-12-03T22:16:10.325Z,29.27
2022-12-03T22:18:36.948Z,23.20
2022-12-03T22:21:07.794Z,30.70
2022-12-03T22:23:34.753Z,24.13
2022-12-03T22:26:04.849Z,28.60
2022-12-03T22:28:31.803Z,28.40
2022-12-03T22:30:58.476Z,25.17
2022-12-03T22:33:24.929Z,25.23
2022-12-03T22:35:56.832Z,27.50
2022-12-03T22:38:23.350Z,31.03
2022-12-03T22:40:50.015Z,27.45
2022-12-03T22:43:17.642Z,29.13
2022-12-03T22:45:44.087Z,28.52
2022-12-03T22:48:10.502Z,24.10
2022-12-03T22:50:44.919Z,25.00
2022-12-03T22:53:12.794Z,27.48
2022-12-03T22:55:39.900Z,25.52
2022-12-03T22:58:07.653Z,28.27
2022-12-03T23:00:39.635Z,28.80
2022-12-03T23:03:07.470Z,25.27
2022-12-03T23:05:36.793Z,25.90
2022-12-03T23:08:05.684Z,26.75
2022-12-03T23:10:37.675Z,26.33
2022-12-03T23:13:05.427Z,24.77
2022-12-03T23:15:32.269Z,25.90
2022-12-03T23:17:59.219Z,28.23
2022-12-03T23:20:26.585Z,26.17
2022-12-03T23:22:54.052Z,26.48
2022-12-03T23:25:21.100Z,25.63
2022-12-03T23:27:48.538Z,27.38
2022-12-03T23:30:16.386Z,23.00
2022-12-03T23:32:44.241Z,23.10
2022-12-03T23:35:12.451Z,27.90
2022-12-03T23:37:43.048Z,28.25
2022-12-03T23:40:10.407Z,24.50
2022-12-03T23:42:36.786Z,25.08
2022-12-03T23:45:03.844Z,21.23
2022-12-03T23:47:30.233Z,20.35
2022-12-03T23:49:56.901Z,21.70
2022-12-03T23:52:24.401Z,18.70
2022-12-03T23:54:50.814Z,24.02
2022-12-03T23:57:18.211Z,22.98
2022-12-03T23:59:44.617Z,17.30
